Aérodrome :
LOGIN :

S'inscrire | Disclaimer

   EN    FR    IT 

 










Légende :    VFR   VFR Marginal   IFR   IFR Intensif   IFR Très Intensif
Visi : 
Plafond : 
>= 8 km
>= 3000ft
5 à 8 km
1000 à 3000 ft
1500m à 5 km
500 à 1000 ft
800 à 1500m
200 à 500 ft
< 800m
< 200 ft
Symboles :   Orages  Brouillard  Fortes neiges  Fortes précipitations  Vent > 20 kt
SIGMETs :   Divers  Orages  Givrage  Turbulence  Onde Orograph.  Cendres Volcan.






- Altitude de l'aérodrome : 200 ft


EBBL - Klein Brogel AB

DERNIER METAR :
  • 200955Z 22015G25KT 9999 -SHRA SCT017 BKN042 08/06 Q1016 WHT BLU TEMPO WHT

METARs EXPIRÉS :
  • 200951Z 22015KT 9999 -SHRA SCT020 BKN042 09/05 Q1016 WHT BLU TEMPO WHT
  • 200925Z 22013KT 9999 FEW020 BKN042 09/05 Q1016 BLU BLU
  • 200855Z 22013KT 9999 FEW020 BKN042 09/05 Q1016 BLU BLU
  • 200825Z 21013KT 9999 FEW020 BKN042 08/05 Q1016 BLU BLU
  • 200824Z 21012KT 9999 FEW020 BKN042 08/05 Q1016 BLU BLU
  • 200755Z 21011KT 9999 SCT016 BKN042 08/05 Q1016 WHT WHT
  • 200725Z 21010KT 9999 SCT016 BKN042 08/05 Q1016 WHT WHT

TAF TAF EBBL
Valide du 20 à 10h jusqu'au 20 à 19h UTC


200841Z 2010/2019 23015G25KT 9999 FEW020 BKN040
TEMPO 2010/2017 230KT SCT020
BECMG 2017/2019 23020G30KT 4000 -RA BKN025
TEMPO 2018/2019 22025G35KT 3000 RA BKN015



MET'MAP, la Météo Aéronautique d'un coup d'oeil ! - Copyright ORBIFLY Décembre 2007 - Disclaimer

ORBIFLY MET'MAP TEAM :

Programmation & Développement : Alexandra Zaïnal
Sur une idée originale de : Baudouin d'Aumeries
Assistance à la programmation : Marc-Olivier Méhu
Soutien technique & logistique : Manuel Goepfert

Contact : metmap@orbifly.com




SOURCES & CREDITS :

   NOAA